createdAt,value
2023-10-06T00:00:20.392Z,15.42
2023-10-06T00:02:47.350Z,15.40
2023-10-06T00:05:14.773Z,15.41
2023-10-06T00:07:42.031Z,15.40
2023-10-06T00:10:21.302Z,15.40
2023-10-06T00:12:55.742Z,15.38
2023-10-06T00:15:36.492Z,15.37
2023-10-06T00:18:24.099Z,15.34
2023-10-06T00:20:51.362Z,15.33
2023-10-06T00:23:29.141Z,15.33
2023-10-06T00:25:57.055Z,15.31
2023-10-06T00:28:27.615Z,15.32
2023-10-06T00:30:57.814Z,15.30
2023-10-06T00:33:27.808Z,15.28
2023-10-06T00:35:54.933Z,15.29
2023-10-06T00:38:22.298Z,15.29
2023-10-06T00:40:55.129Z,15.27
2023-10-06T00:43:40.914Z,15.27
2023-10-06T00:46:09.676Z,15.26
2023-10-06T00:48:40.051Z,15.24
2023-10-06T00:51:11.228Z,15.24
2023-10-06T00:53:38.049Z,15.24
2023-10-06T00:56:12.079Z,15.23
2023-10-06T00:58:42.590Z,15.23
2023-10-06T01:01:18.203Z,15.24
2023-10-06T01:03:49.472Z,15.23
2023-10-06T01:06:24.453Z,15.22
2023-10-06T01:09:07.286Z,15.21
2023-10-06T01:11:42.138Z,15.21
2023-10-06T01:14:09.242Z,15.22
2023-10-06T01:16:37.597Z,15.21
2023-10-06T01:19:24.083Z,15.21
2023-10-06T01:21:54.440Z,15.20
2023-10-06T01:24:27.616Z,15.17
2023-10-06T01:26:55.360Z,15.18
2023-10-06T01:29:26.109Z,15.18
2023-10-06T01:31:53.202Z,15.17
2023-10-06T01:34:20.001Z,15.17
2023-10-06T01:36:53.349Z,15.17
2023-10-06T01:39:23.868Z,15.17
2023-10-06T01:41:52.506Z,15.16
2023-10-06T01:44:19.484Z,15.15
2023-10-06T01:46:56.359Z,15.12
2023-10-06T01:49:23.545Z,15.12
2023-10-06T01:52:06.573Z,15.11
2023-10-06T01:54:36.018Z,15.09
2023-10-06T01:57:07.453Z,15.09
2023-10-06T01:59:34.778Z,15.07
2023-10-06T02:02:03.049Z,15.07
2023-10-06T02:04:41.124Z,15.07
2023-10-06T02:07:14.006Z,15.07
2023-10-06T02:09:41.195Z,15.06
2023-10-06T02:12:10.432Z,15.05
2023-10-06T02:14:37.442Z,15.04
2023-10-06T02:17:08.099Z,15.03
2023-10-06T02:19:35.604Z,15.01
2023-10-06T02:22:08.162Z,15.01
2023-10-06T02:24:35.188Z,15.02
2023-10-06T02:27:02.889Z,15.01
2023-10-06T02:29:31.465Z,15.01
2023-10-06T02:32:08.696Z,15.01
2023-10-06T02:34:40.256Z,14.98
2023-10-06T02:37:07.978Z,14.99
2023-10-06T02:39:44.592Z,14.98
2023-10-06T02:42:15.639Z,14.96
2023-10-06T02:44:44.310Z,14.95
2023-10-06T02:47:12.143Z,14.94
2023-10-06T02:49:42.481Z,14.93
2023-10-06T02:52:22.406Z,14.93
2023-10-06T02:55:08.051Z,14.89
2023-10-06T02:57:39.298Z,14.88
2023-10-06T03:00:33.834Z,14.89
2023-10-06T03:03:13.336Z,14.87
2023-10-06T03:05:40.863Z,14.85
2023-10-06T03:08:11.087Z,14.84
2023-10-06T03:10:45.098Z,14.82
2023-10-06T03:13:14.783Z,14.80
2023-10-06T03:15:47.812Z,14.80
2023-10-06T03:18:15.793Z,14.80
2023-10-06T03:20:49.458Z,14.80
2023-10-06T03:23:26.858Z,14.81
2023-10-06T03:25:58.319Z,14.81
2023-10-06T03:28:37.938Z,14.81
2023-10-06T03:31:19.516Z,14.78
2023-10-06T03:33:46.532Z,14.76
2023-10-06T03:36:16.913Z,14.77
2023-10-06T03:39:10.517Z,14.75
2023-10-06T03:41:38.772Z,14.74
2023-10-06T03:44:11.264Z,14.72
2023-10-06T03:46:40.101Z,14.74
2023-10-06T03:49:08.665Z,14.73
2023-10-06T03:51:42.336Z,14.72
2023-10-06T03:54:09.262Z,14.72
2023-10-06T03:56:36.146Z,14.71
2023-10-06T03:59:14.445Z,14.70
2023-10-06T04:01:45.914Z,14.68
2023-10-06T04:04:21.947Z,14.69
2023-10-06T04:06:49.356Z,14.70
2023-10-06T04:09:23.743Z,14.69
2023-10-06T04:11:50.839Z,14.68
2023-10-06T04:14:18.779Z,14.68
2023-10-06T04:16:47.441Z,14.68
2023-10-06T04:19:17.966Z,14.67
2023-10-06T04:21:44.952Z,14.68
2023-10-06T04:24:11.865Z,14.66
2023-10-06T04:26:40.763Z,14.65
2023-10-06T04:29:13.585Z,14.65
2023-10-06T04:31:40.724Z,14.63
2023-10-06T04:34:10.818Z,14.63
2023-10-06T04:36:39.296Z,14.63
2023-10-06T04:39:11.143Z,14.62
2023-10-06T04:41:38.270Z,14.61
2023-10-06T04:44:05.532Z,14.61
2023-10-06T04:46:32.645Z,14.61
2023-10-06T04:48:59.607Z,14.61
2023-10-06T04:51:30.838Z,14.61
2023-10-06T04:53:57.685Z,14.60
2023-10-06T04:56:24.823Z,14.60
2023-10-06T04:58:51.722Z,14.59
2023-10-06T05:01:18.509Z,14.60
2023-10-06T05:03:46.571Z,14.58
2023-10-06T05:06:17.999Z,14.57
2023-10-06T05:08:51.084Z,14.56
2023-10-06T05:11:19.705Z,14.56
2023-10-06T05:13:50.565Z,14.55
2023-10-06T05:16:20.308Z,14.54
2023-10-06T05:18:48.888Z,14.55
2023-10-06T05:21:16.659Z,14.55
2023-10-06T05:23:47.359Z,14.52
2023-10-06T05:26:17.395Z,14.52
2023-10-06T05:28:45.112Z,14.52
2023-10-06T05:31:13.356Z,14.50
2023-10-06T05:33:42.202Z,14.48
2023-10-06T05:36:12.110Z,14.48
2023-10-06T05:38:39.505Z,14.48
2023-10-06T05:41:16.557Z,14.48
2023-10-06T05:43:45.198Z,14.46
2023-10-06T05:46:12.712Z,14.46
2023-10-06T05:48:41.180Z,14.45
2023-10-06T05:51:11.682Z,14.45
2023-10-06T05:53:40.745Z,14.46
2023-10-06T05:56:11.126Z,14.45
2023-10-06T05:58:42.427Z,14.46
2023-10-06T06:01:21.934Z,14.45
2023-10-06T06:03:51.225Z,14.46
2023-10-06T06:06:24.568Z,14.44
2023-10-06T06:08:53.222Z,14.44
2023-10-06T06:11:20.280Z,14.43
2023-10-06T06:13:55.399Z,14.42
2023-10-06T06:16:31.724Z,14.40
2023-10-06T06:18:58.867Z,14.41
2023-10-06T06:21:28.412Z,14.41
2023-10-06T06:23:56.486Z,14.42
2023-10-06T06:26:24.489Z,14.42
2023-10-06T06:28:54.144Z,14.42
2023-10-06T06:31:21.724Z,14.42
2023-10-06T06:33:57.927Z,14.42
2023-10-06T06:36:25.265Z,14.42
2023-10-06T06:38:53.152Z,14.41
2023-10-06T06:41:20.977Z,14.42
2023-10-06T06:43:48.119Z,14.42
2023-10-06T06:46:18.322Z,14.42
2023-10-06T06:48:46.077Z,14.43
2023-10-06T06:51:14.200Z,14.43
2023-10-06T06:53:41.127Z,14.44
2023-10-06T06:56:11.807Z,14.45
2023-10-06T06:58:39.085Z,14.47
2023-10-06T07:01:08.928Z,14.47
2023-10-06T07:03:36.002Z,14.49
2023-10-06T07:06:02.834Z,14.48
2023-10-06T07:08:31.118Z,14.49
2023-10-06T07:10:58.989Z,14.49
2023-10-06T07:13:25.910Z,14.51
2023-10-06T07:15:54.810Z,14.50
2023-10-06T07:18:23.475Z,14.53
2023-10-06T07:20:50.483Z,14.53
2023-10-06T07:23:17.501Z,14.53
2023-10-06T07:25:45.713Z,14.53
2023-10-06T07:28:13.570Z,14.53
2023-10-06T07:30:41.077Z,14.54
2023-10-06T07:33:08.249Z,14.55
2023-10-06T07:35:48.974Z,14.57
2023-10-06T07:38:15.936Z,14.57
2023-10-06T07:40:43.700Z,14.58
2023-10-06T07:43:13.831Z,14.60
2023-10-06T07:45:40.833Z,14.61
2023-10-06T07:48:11.383Z,14.63
2023-10-06T07:50:39.205Z,14.67
2023-10-06T07:53:06.425Z,14.69
2023-10-06T07:55:33.726Z,14.71
2023-10-06T07:58:01.663Z,14.71
2023-10-06T08:00:31.474Z,14.77
2023-10-06T08:03:03.090Z,14.78
2023-10-06T08:05:30.945Z,14.82
2023-10-06T08:08:00.207Z,14.85
2023-10-06T08:10:29.180Z,14.87
2023-10-06T08:12:57.883Z,14.91
2023-10-06T08:15:28.977Z,14.97
2023-10-06T08:17:57.983Z,15.01
2023-10-06T08:20:26.921Z,15.03
2023-10-06T08:22:54.895Z,15.06
2023-10-06T08:25:24.896Z,15.10
2023-10-06T08:27:52.962Z,15.15
2023-10-06T08:30:21.266Z,15.19
2023-10-06T08:32:50.402Z,15.24
2023-10-06T08:35:19.626Z,15.28
2023-10-06T08:37:48.318Z,15.34
2023-10-06T08:40:20.740Z,15.38
2023-10-06T08:42:52.603Z,15.42
2023-10-06T08:45:21.466Z,15.47
2023-10-06T08:48:01.681Z,15.52
2023-10-06T08:50:33.722Z,15.57
2023-10-06T08:53:02.673Z,15.61
2023-10-06T08:55:30.674Z,15.66
2023-10-06T08:58:04.418Z,15.72
2023-10-06T09:00:36.625Z,15.79
2023-10-06T09:03:11.038Z,15.83
2023-10-06T09:05:41.114Z,15.90
2023-10-06T09:08:10.390Z,15.94
2023-10-06T09:10:41.590Z,16.01
2023-10-06T09:13:12.257Z,16.05
2023-10-06T09:15:42.395Z,16.10
2023-10-06T09:18:21.373Z,16.15
2023-10-06T09:20:50.614Z,16.21
2023-10-06T09:23:33.999Z,16.25
2023-10-06T09:26:02.337Z,16.31
2023-10-06T09:28:30.261Z,16.35
2023-10-06T09:31:02.998Z,16.41
2023-10-06T09:33:42.546Z,16.45
2023-10-06T09:38:50.171Z,16.55
2023-10-06T09:41:27.284Z,16.58
2023-10-06T09:43:55.070Z,16.63
2023-10-06T09:46:24.099Z,16.67
2023-10-06T09:48:52.936Z,16.71
2023-10-06T09:51:24.843Z,16.74
2023-10-06T09:53:52.491Z,16.77
2023-10-06T09:56:21.736Z,16.79
2023-10-06T09:58:49.928Z,16.82
2023-10-06T10:01:17.621Z,16.85
2023-10-06T10:03:45.012Z,16.88
2023-10-06T10:06:15.352Z,16.90
2023-10-06T10:08:43.550Z,16.95
2023-10-06T10:11:15.443Z,16.99
2023-10-06T10:14:09.369Z,17.04
2023-10-06T10:16:51.149Z,17.07
2023-10-06T10:19:23.628Z,17.11
2023-10-06T10:21:51.631Z,17.16
2023-10-06T10:26:54.892Z,17.28
2023-10-06T10:29:31.744Z,17.32
2023-10-06T10:32:08.534Z,17.37
2023-10-06T10:34:35.540Z,17.42
2023-10-06T10:37:18.323Z,17.46
2023-10-06T10:39:50.041Z,17.51
2023-10-06T10:42:19.220Z,17.58
2023-10-06T10:44:48.732Z,17.64
2023-10-06T10:47:16.789Z,17.69
2023-10-06T10:49:45.902Z,17.73
2023-10-06T10:52:13.027Z,17.77
2023-10-06T10:54:41.374Z,17.79
2023-10-06T10:57:11.841Z,17.83
2023-10-06T11:00:09.944Z,17.85
2023-10-06T11:02:41.451Z,17.86
2023-10-06T11:05:09.260Z,17.90
2023-10-06T11:07:37.450Z,17.92
2023-10-06T11:10:05.167Z,17.93
2023-10-06T11:12:36.427Z,17.94
2023-10-06T11:15:18.085Z,17.95
2023-10-06T11:17:45.425Z,17.97
2023-10-06T11:20:28.668Z,17.99
2023-10-06T11:22:56.441Z,18.01
2023-10-06T11:25:28.599Z,18.03
2023-10-06T11:28:04.489Z,18.05
2023-10-06T11:30:34.421Z,18.09
2023-10-06T11:33:05.126Z,18.11
2023-10-06T11:35:32.319Z,18.14
2023-10-06T11:37:59.276Z,18.16
2023-10-06T11:40:26.221Z,18.18
2023-10-06T11:42:55.000Z,18.21
2023-10-06T11:45:25.965Z,18.24
2023-10-06T11:47:54.323Z,18.27
2023-10-06T11:50:24.230Z,18.29
2023-10-06T11:52:51.942Z,18.33
2023-10-06T11:55:27.209Z,18.36
2023-10-06T11:57:54.148Z,18.40
2023-10-06T12:00:37.304Z,18.43
2023-10-06T12:03:04.305Z,18.45
2023-10-06T12:05:31.905Z,18.49
2023-10-06T12:08:05.043Z,18.52
2023-10-06T12:10:33.943Z,18.58
2023-10-06T12:13:01.344Z,18.62
2023-10-06T12:15:31.115Z,18.67
2023-10-06T12:17:59.391Z,18.71
2023-10-06T12:20:26.634Z,18.72
2023-10-06T12:22:55.020Z,18.75
2023-10-06T12:25:24.675Z,18.79
2023-10-06T12:27:52.470Z,18.83
2023-10-06T12:30:20.578Z,18.85
2023-10-06T12:32:47.412Z,18.86
2023-10-06T12:35:22.726Z,18.85
2023-10-06T12:37:50.208Z,18.87
2023-10-06T12:40:17.774Z,18.88
2023-10-06T12:42:45.208Z,18.89
2023-10-06T12:45:21.342Z,18.90
2023-10-06T12:47:49.323Z,18.90
2023-10-06T12:50:19.127Z,18.91
2023-10-06T12:52:46.866Z,18.93
2023-10-06T12:55:14.055Z,18.93
2023-10-06T12:57:41.905Z,18.93
2023-10-06T13:00:10.481Z,18.94
2023-10-06T13:02:38.224Z,18.94
2023-10-06T13:05:18.675Z,18.93
2023-10-06T13:07:48.389Z,18.92
2023-10-06T13:10:16.963Z,18.94
2023-10-06T13:12:44.616Z,18.97
2023-10-06T13:15:15.692Z,18.95
2023-10-06T13:17:43.445Z,18.97
2023-10-06T13:20:14.811Z,18.98
2023-10-06T13:22:42.903Z,18.99
2023-10-06T13:25:12.094Z,19.01
2023-10-06T13:27:40.130Z,19.03
2023-10-06T13:30:10.567Z,19.05
2023-10-06T13:32:38.045Z,19.07
2023-10-06T13:35:06.532Z,19.10
2023-10-06T13:37:33.457Z,19.12
2023-10-06T13:40:00.798Z,19.16
2023-10-06T13:42:29.070Z,19.22
2023-10-06T13:44:57.103Z,19.25
2023-10-06T13:47:24.036Z,19.30
2023-10-06T13:49:55.372Z,19.33
2023-10-06T13:52:22.310Z,19.37
2023-10-06T13:54:50.505Z,19.39
2023-10-06T13:57:17.390Z,19.41
2023-10-06T13:59:47.911Z,19.44
2023-10-06T14:02:14.994Z,19.45
2023-10-06T14:04:41.900Z,19.47
2023-10-06T14:07:12.823Z,19.48
2023-10-06T14:09:39.604Z,19.50
2023-10-06T14:12:12.613Z,19.54
2023-10-06T14:14:45.149Z,19.56
2023-10-06T14:17:22.778Z,19.59
2023-10-06T14:19:51.543Z,19.60
2023-10-06T14:22:22.423Z,19.62
2023-10-06T14:24:49.766Z,19.63
2023-10-06T14:27:19.634Z,19.64
2023-10-06T14:29:46.521Z,19.64
2023-10-06T14:32:39.472Z,19.66
2023-10-06T14:35:25.346Z,19.67
2023-10-06T14:38:15.383Z,19.68
2023-10-06T14:41:31.760Z,19.68
2023-10-06T14:44:18.342Z,19.68
2023-10-06T14:46:52.730Z,19.68
2023-10-06T14:49:24.997Z,19.66
2023-10-06T14:51:55.142Z,19.68
2023-10-06T14:54:22.716Z,19.67
2023-10-06T14:56:50.402Z,19.67
2023-10-06T14:59:19.968Z,19.69
2023-10-06T15:01:55.345Z,19.70
2023-10-06T15:04:24.217Z,19.70
2023-10-06T15:06:54.748Z,19.70
2023-10-06T15:09:21.736Z,19.68
2023-10-06T15:11:51.337Z,19.68
2023-10-06T15:14:25.350Z,19.68
2023-10-06T15:16:52.694Z,19.67
2023-10-06T15:19:19.562Z,19.66
2023-10-06T15:21:47.848Z,19.67
2023-10-06T15:24:18.592Z,19.66
2023-10-06T15:26:46.378Z,19.66
2023-10-06T15:29:14.689Z,19.67
2023-10-06T15:31:42.217Z,19.66
2023-10-06T15:34:09.260Z,19.67
2023-10-06T15:36:36.997Z,19.66
2023-10-06T15:39:26.032Z,19.65
2023-10-06T15:41:54.260Z,19.64
2023-10-06T15:44:21.548Z,19.62
2023-10-06T15:46:50.387Z,19.61
2023-10-06T15:49:20.531Z,19.62
2023-10-06T15:51:48.820Z,19.61
2023-10-06T15:54:17.626Z,19.61
2023-10-06T15:56:45.160Z,19.60
2023-10-06T15:59:16.531Z,19.59
2023-10-06T16:01:45.239Z,19.59
2023-10-06T16:04:15.592Z,19.59
2023-10-06T16:06:44.426Z,19.60
2023-10-06T16:09:17.218Z,19.58
2023-10-06T16:11:46.185Z,19.57
2023-10-06T16:14:16.720Z,19.55
2023-10-06T16:16:44.806Z,19.54
2023-10-06T16:19:14.444Z,19.52
2023-10-06T16:21:42.933Z,19.51
2023-10-06T16:24:13.455Z,19.50
2023-10-06T16:26:40.646Z,19.50
2023-10-06T16:29:11.656Z,19.49
2023-10-06T16:31:38.784Z,19.47
2023-10-06T16:34:05.774Z,19.46
2023-10-06T16:36:33.235Z,19.45
2023-10-06T16:39:00.456Z,19.45
2023-10-06T16:41:27.622Z,19.44
2023-10-06T16:43:56.962Z,19.42
2023-10-06T16:46:26.772Z,19.42
2023-10-06T16:48:53.768Z,19.41
2023-10-06T16:51:21.789Z,19.38
2023-10-06T16:53:49.826Z,19.37
2023-10-06T16:56:17.230Z,19.36
2023-10-06T16:58:44.145Z,19.36
2023-10-06T17:01:11.071Z,19.33
2023-10-06T17:03:39.435Z,19.32
2023-10-06T17:06:11.482Z,19.30
2023-10-06T17:08:38.323Z,19.28
2023-10-06T17:11:15.952Z,19.28
2023-10-06T17:13:43.399Z,19.26
2023-10-06T17:16:14.516Z,19.25
2023-10-06T17:18:43.590Z,19.23
2023-10-06T17:21:12.686Z,19.21
2023-10-06T17:23:40.854Z,19.20
2023-10-06T17:26:09.798Z,19.15
2023-10-06T17:28:36.892Z,19.14
2023-10-06T17:31:04.179Z,19.13
2023-10-06T17:33:31.269Z,19.11
2023-10-06T17:35:59.640Z,19.09
2023-10-06T17:38:26.535Z,19.07
2023-10-06T17:40:59.146Z,19.06
2023-10-06T17:43:26.210Z,19.05
2023-10-06T17:45:53.033Z,19.03
2023-10-06T17:48:21.491Z,19.01
2023-10-06T17:50:51.295Z,18.99
2023-10-06T17:53:19.659Z,18.96
2023-10-06T17:55:53.649Z,18.94
2023-10-06T17:58:21.538Z,18.90
2023-10-06T18:00:50.098Z,18.88
2023-10-06T18:03:18.973Z,18.86
2023-10-06T18:05:46.603Z,18.84
2023-10-06T18:08:13.526Z,18.82
2023-10-06T18:10:42.512Z,18.79
2023-10-06T18:13:09.248Z,18.77
2023-10-06T18:15:36.050Z,18.75
2023-10-06T18:18:03.167Z,18.73
2023-10-06T18:20:29.956Z,18.71
2023-10-06T18:22:58.413Z,18.69
2023-10-06T18:25:25.291Z,18.66
2023-10-06T18:27:53.502Z,18.66
2023-10-06T18:30:21.929Z,18.62
2023-10-06T18:32:49.006Z,18.60
2023-10-06T18:35:16.021Z,18.58
2023-10-06T18:37:43.325Z,18.56
2023-10-06T18:40:14.574Z,18.53
2023-10-06T18:42:41.718Z,18.52
2023-10-06T18:45:11.099Z,18.50
2023-10-06T18:47:38.074Z,18.47
2023-10-06T18:50:07.020Z,18.45
2023-10-06T18:52:33.862Z,18.43
2023-10-06T18:55:01.830Z,18.40
2023-10-06T18:57:28.803Z,18.37
2023-10-06T18:59:55.481Z,18.35
2023-10-06T19:02:24.417Z,18.33
2023-10-06T19:04:52.518Z,18.31
2023-10-06T19:07:19.620Z,18.30
2023-10-06T19:09:46.464Z,18.28
2023-10-06T19:12:17.427Z,18.26
2023-10-06T19:14:44.475Z,18.25
2023-10-06T19:17:12.503Z,18.24
2023-10-06T19:19:42.138Z,18.22
2023-10-06T19:22:10.020Z,18.19
2023-10-06T19:24:41.917Z,18.17
2023-10-06T19:27:08.863Z,18.15
2023-10-06T19:29:35.650Z,18.13
2023-10-06T19:32:04.705Z,18.11
2023-10-06T19:34:31.485Z,18.08
2023-10-06T19:36:59.737Z,18.07
2023-10-06T19:39:28.366Z,18.05
2023-10-06T19:42:02.870Z,18.03
2023-10-06T19:44:35.741Z,17.99
2023-10-06T19:47:04.246Z,17.98
2023-10-06T19:49:33.066Z,17.96
2023-10-06T19:52:01.384Z,17.96
2023-10-06T19:54:28.160Z,17.93
2023-10-06T19:56:55.042Z,17.91
2023-10-06T19:59:21.867Z,17.88
2023-10-06T20:01:48.766Z,17.87
2023-10-06T20:04:15.660Z,17.86
2023-10-06T20:06:43.238Z,17.85
2023-10-06T20:09:12.740Z,17.85
2023-10-06T20:11:39.793Z,17.83
2023-10-06T20:14:08.406Z,17.83
2023-10-06T20:16:35.211Z,17.80
2023-10-06T20:19:02.144Z,17.78
2023-10-06T20:21:30.778Z,17.76
2023-10-06T20:23:58.284Z,17.74
2023-10-06T20:26:26.600Z,17.73
2023-10-06T20:28:53.554Z,17.70
2023-10-06T20:31:20.511Z,17.71
2023-10-06T20:33:47.674Z,17.68
2023-10-06T20:36:15.920Z,17.66
2023-10-06T20:38:43.332Z,17.65
2023-10-06T20:41:10.122Z,17.61
2023-10-06T20:43:40.078Z,17.59
2023-10-06T20:46:07.023Z,17.59
2023-10-06T20:48:34.467Z,17.56
2023-10-06T20:51:03.022Z,17.53
2023-10-06T20:53:29.895Z,17.51
2023-10-06T20:56:02.620Z,17.51
2023-10-06T20:58:30.312Z,17.49
2023-10-06T21:01:07.059Z,17.50
2023-10-06T21:03:35.574Z,17.49
2023-10-06T21:06:02.482Z,17.48
2023-10-06T21:08:31.046Z,17.49
2023-10-06T21:10:59.590Z,17.49
2023-10-06T21:13:27.799Z,17.48
2023-10-06T21:15:54.619Z,17.46
2023-10-06T21:18:23.931Z,17.45
2023-10-06T21:20:51.045Z,17.43
2023-10-06T21:23:18.991Z,17.42
2023-10-06T21:25:45.949Z,17.40
2023-10-06T21:28:13.214Z,17.38
2023-10-06T21:30:39.995Z,17.38
2023-10-06T21:33:06.752Z,17.37
2023-10-06T21:35:35.811Z,17.37
2023-10-06T21:38:02.643Z,17.36
2023-10-06T21:40:29.439Z,17.36
2023-10-06T21:42:56.230Z,17.36
2023-10-06T21:45:24.976Z,17.33
2023-10-06T21:47:51.747Z,17.33
2023-10-06T21:50:18.673Z,17.30
2023-10-06T21:52:46.915Z,17.29
2023-10-06T21:55:13.701Z,17.28
2023-10-06T21:57:40.868Z,17.27
2023-10-06T22:00:26.277Z,17.24
2023-10-06T22:02:54.150Z,17.23
2023-10-06T22:05:21.981Z,17.23
2023-10-06T22:07:53.203Z,17.20
2023-10-06T22:10:20.342Z,17.20
2023-10-06T22:12:49.336Z,17.18
2023-10-06T22:15:16.394Z,17.17
2023-10-06T22:17:43.310Z,17.17
2023-10-06T22:20:10.735Z,17.16
2023-10-06T22:22:38.190Z,17.14
2023-10-06T22:25:07.312Z,17.12
2023-10-06T22:27:34.212Z,17.10
2023-10-06T22:30:01.043Z,17.09
2023-10-06T22:32:28.884Z,17.07
2023-10-06T22:34:55.840Z,17.06
2023-10-06T22:37:26.437Z,17.06
2023-10-06T22:39:53.922Z,17.05
2023-10-06T22:42:22.882Z,17.04
2023-10-06T22:44:49.869Z,17.02
2023-10-06T22:47:17.000Z,16.99
2023-10-06T22:49:44.378Z,16.99
2023-10-06T22:52:11.324Z,16.99
2023-10-06T22:54:38.356Z,16.97
2023-10-06T22:57:06.645Z,16.97
2023-10-06T22:59:36.274Z,16.96
2023-10-06T23:02:04.247Z,16.95
2023-10-06T23:04:34.113Z,16.96
2023-10-06T23:07:01.377Z,16.94
2023-10-06T23:09:32.483Z,16.91
2023-10-06T23:12:00.705Z,16.92
2023-10-06T23:14:27.489Z,16.89
2023-10-06T23:16:55.754Z,16.88
2023-10-06T23:19:22.596Z,16.87
2023-10-06T23:21:49.409Z,16.86
2023-10-06T23:24:19.877Z,16.88
2023-10-06T23:26:46.731Z,16.86
2023-10-06T23:29:15.338Z,16.83
2023-10-06T23:31:42.239Z,16.81
2023-10-06T23:34:13.723Z,16.80
2023-10-06T23:36:48.171Z,16.79
2023-10-06T23:39:20.595Z,16.78
2023-10-06T23:41:47.384Z,16.77
2023-10-06T23:44:17.159Z,16.75
2023-10-06T23:46:44.198Z,16.74
2023-10-06T23:49:12.775Z,16.73
2023-10-06T23:51:40.861Z,16.73
2023-10-06T23:54:10.951Z,16.71
2023-10-06T23:56:40.285Z,16.72
2023-10-06T23:59:16.645Z,16.70
